createdAt,value
2023-06-05T00:01:26.102Z,40.17
2023-06-05T00:03:54.606Z,34.75
2023-06-05T00:06:21.407Z,36.33
2023-06-05T00:08:51.418Z,34.47
2023-06-05T00:11:17.858Z,32.63
2023-06-05T00:13:44.243Z,29.55
2023-06-05T00:16:10.788Z,41.70
2023-06-05T00:18:37.194Z,37.47
2023-06-05T00:21:04.983Z,40.17
2023-06-05T00:23:31.696Z,44.53
2023-06-05T00:25:58.828Z,54.65
2023-06-05T00:28:26.032Z,58.80
2023-06-05T00:30:52.554Z,44.55
2023-06-05T00:33:18.965Z,45.90
2023-06-05T00:35:45.395Z,48.85
2023-06-05T00:38:11.873Z,53.13
2023-06-05T00:40:38.262Z,60.55
2023-06-05T00:43:06.863Z,42.83
2023-06-05T00:45:34.464Z,49.05
2023-06-05T00:48:01.098Z,40.47
2023-06-05T00:50:27.857Z,48.10
2023-06-05T00:52:55.078Z,55.88
2023-06-05T00:55:22.050Z,60.25
2023-06-05T00:57:48.515Z,63.90
2023-06-05T01:00:15.584Z,74.82
2023-06-05T01:02:45.539Z,87.65
2023-06-05T01:05:14.058Z,74.75
2023-06-05T01:07:43.164Z,129.30
2023-06-05T01:10:11.010Z,93.95
2023-06-05T01:13:06.457Z,109.93
2023-06-05T01:15:34.887Z,86.50
2023-06-05T01:18:01.953Z,101.88
2023-06-05T01:20:39.842Z,98.32
2023-06-05T01:23:07.541Z,73.10
2023-06-05T01:25:35.984Z,115.70
2023-06-05T01:28:23.922Z,135.52
2023-06-05T01:31:06.788Z,94.95
2023-06-05T01:33:44.402Z,96.28
2023-06-05T01:36:15.307Z,86.68
2023-06-05T01:38:43.820Z,62.20
2023-06-05T01:41:11.863Z,77.97
2023-06-05T01:43:39.556Z,80.32
2023-06-05T01:46:08.537Z,114.75
2023-06-05T01:48:36.218Z,100.30
2023-06-05T01:51:03.044Z,83.45
2023-06-05T01:53:30.647Z,70.43
2023-06-05T01:56:00.859Z,79.68
2023-06-05T01:58:28.144Z,55.65
2023-06-05T02:00:55.122Z,83.25
2023-06-05T02:03:22.348Z,70.68
2023-06-05T02:05:48.998Z,71.35
2023-06-05T02:08:20.324Z,72.60
2023-06-05T02:10:48.068Z,79.18
2023-06-05T02:13:16.724Z,81.45
2023-06-05T02:15:47.950Z,82.35
2023-06-05T02:18:14.397Z,75.35
2023-06-05T02:20:42.282Z,62.90
2023-06-05T02:23:09.230Z,85.35
2023-06-05T02:25:35.844Z,71.30
2023-06-05T02:28:04.556Z,73.75
2023-06-05T02:30:31.444Z,81.43
2023-06-05T02:33:01.711Z,59.20
2023-06-05T02:35:28.499Z,55.15
2023-06-05T02:37:55.065Z,42.45
2023-06-05T02:40:24.461Z,69.55
2023-06-05T02:42:51.289Z,74.15
2023-06-05T02:45:17.960Z,74.35
2023-06-05T02:47:44.480Z,69.22
2023-06-05T02:50:11.119Z,80.53
2023-06-05T02:52:40.813Z,79.25
2023-06-05T02:55:10.222Z,88.55
2023-06-05T02:57:42.202Z,63.03
2023-06-05T03:00:10.549Z,44.50
2023-06-05T03:02:37.966Z,56.90
2023-06-05T03:05:05.242Z,71.13
2023-06-05T03:07:34.955Z,76.88
2023-06-05T03:10:02.336Z,54.08
2023-06-05T03:12:28.833Z,53.67
2023-06-05T03:14:56.094Z,55.58
2023-06-05T03:17:24.326Z,52.50
2023-06-05T03:19:51.408Z,56.92
2023-06-05T03:22:18.933Z,71.55
2023-06-05T03:24:46.590Z,57.55
2023-06-05T03:27:15.312Z,55.85
2023-06-05T03:29:41.734Z,71.63
2023-06-05T03:32:11.605Z,58.47
2023-06-05T03:34:38.069Z,56.38
2023-06-05T03:37:05.084Z,73.10
2023-06-05T03:39:32.060Z,88.90
2023-06-05T03:41:58.516Z,129.05
2023-06-05T03:44:25.478Z,103.80
2023-06-05T03:46:55.199Z,182.93
2023-06-05T03:49:23.485Z,110.85
2023-06-05T03:51:50.834Z,206.00
2023-06-05T03:54:17.861Z,103.85
2023-06-05T03:56:52.376Z,122.35
2023-06-05T03:59:23.372Z,131.48
2023-06-05T04:01:49.900Z,80.25
2023-06-05T04:04:16.834Z,68.63
2023-06-05T04:06:44.572Z,109.68
2023-06-05T04:09:13.881Z,151.38
2023-06-05T04:11:45.186Z,111.38
2023-06-05T04:14:12.375Z,91.47
2023-06-05T04:16:39.985Z,162.88
2023-06-05T04:19:07.732Z,93.22
2023-06-05T04:21:36.974Z,162.57
2023-06-05T04:24:07.956Z,83.55
2023-06-05T04:26:35.517Z,94.47
2023-06-05T04:29:14.528Z,168.82
2023-06-05T04:31:45.287Z,99.78
2023-06-05T04:34:12.059Z,86.03
2023-06-05T04:36:39.178Z,191.85
2023-06-05T04:39:07.176Z,132.50
2023-06-05T04:41:34.004Z,148.77
2023-06-05T04:44:03.255Z,165.48
2023-06-05T04:46:29.894Z,188.05
2023-06-05T04:48:58.561Z,220.57
2023-06-05T04:51:25.339Z,143.25
2023-06-05T04:53:53.577Z,238.13
2023-06-05T04:56:22.739Z,114.35
2023-06-05T04:58:51.287Z,93.18
2023-06-05T05:01:18.103Z,60.28
2023-06-05T05:03:45.803Z,63.10
2023-06-05T05:06:15.799Z,61.25
2023-06-05T05:08:42.976Z,81.47
2023-06-05T05:11:09.745Z,63.28
2023-06-05T05:13:36.484Z,66.15
2023-06-05T05:16:03.036Z,61.83
2023-06-05T05:18:29.572Z,59.78
2023-06-05T05:20:56.171Z,58.10
2023-06-05T05:23:22.694Z,49.95
2023-06-05T05:25:49.155Z,53.42
2023-06-05T05:28:15.661Z,44.67
2023-06-05T05:30:48.794Z,42.05
2023-06-05T05:33:15.830Z,43.92
2023-06-05T05:35:44.384Z,48.53
2023-06-05T05:38:11.830Z,68.38
2023-06-05T05:40:38.357Z,66.22
2023-06-05T05:43:04.832Z,63.05
2023-06-05T05:45:31.290Z,74.47
2023-06-05T05:47:57.886Z,93.38
2023-06-05T05:50:24.350Z,62.35
2023-06-05T05:52:52.945Z,47.72
2023-06-05T05:55:19.347Z,63.67
2023-06-05T05:57:45.736Z,45.47
2023-06-05T06:00:13.704Z,48.47
2023-06-05T06:02:40.734Z,52.60
2023-06-05T06:05:07.505Z,48.13
2023-06-05T06:07:33.926Z,44.92
2023-06-05T06:10:00.398Z,49.55
2023-06-05T06:12:28.892Z,49.40
2023-06-05T06:14:55.912Z,46.28
2023-06-05T06:17:22.897Z,49.00
2023-06-05T06:19:49.545Z,41.83
2023-06-05T06:22:16.278Z,48.92
2023-06-05T06:24:43.809Z,46.00
2023-06-05T06:27:28.336Z,44.97
2023-06-05T06:29:57.969Z,42.53
2023-06-05T06:32:26.697Z,51.08
2023-06-05T06:34:55.071Z,42.92
2023-06-05T06:37:21.846Z,40.40
2023-06-05T06:39:48.900Z,41.35
2023-06-05T06:42:15.785Z,45.70
2023-06-05T06:44:42.762Z,45.63
2023-06-05T06:47:12.208Z,45.22
2023-06-05T06:49:40.699Z,47.28
2023-06-05T06:52:07.396Z,45.83
2023-06-05T06:54:33.821Z,42.97
2023-06-05T06:57:00.407Z,44.00
2023-06-05T06:59:27.018Z,42.22
2023-06-05T07:02:12.477Z,43.22
2023-06-05T07:04:39.481Z,38.60
2023-06-05T07:07:06.183Z,36.35
2023-06-05T07:09:32.617Z,41.72
2023-06-05T07:11:59.749Z,43.28
2023-06-05T07:14:26.151Z,36.47
2023-06-05T07:16:57.076Z,36.88
2023-06-05T07:19:23.601Z,34.97
2023-06-05T07:21:50.052Z,34.55
2023-06-05T07:24:16.479Z,27.90
2023-06-05T07:26:43.054Z,31.55
2023-06-05T07:29:10.080Z,43.50
2023-06-05T07:31:37.411Z,34.03
2023-06-05T07:34:06.869Z,33.53
2023-06-05T07:36:34.337Z,37.00
2023-06-05T07:39:00.873Z,35.83
2023-06-05T07:41:27.421Z,32.15
2023-06-05T07:43:53.896Z,36.45
2023-06-05T07:46:20.473Z,35.05
2023-06-05T07:48:46.933Z,30.45
2023-06-05T07:51:13.682Z,30.83
2023-06-05T07:53:40.303Z,31.08
2023-06-05T07:56:09.653Z,31.75
2023-06-05T07:58:36.197Z,30.85
2023-06-05T08:01:05.013Z,42.00
2023-06-05T08:03:31.538Z,33.10
2023-06-05T08:05:58.386Z,29.48
2023-06-05T08:08:24.896Z,33.05
2023-06-05T08:10:51.906Z,33.85
2023-06-05T08:13:18.430Z,25.73
2023-06-05T08:15:44.973Z,25.75
2023-06-05T08:18:11.598Z,24.67
2023-06-05T08:20:38.139Z,28.23
2023-06-05T08:23:07.827Z,30.15
2023-06-05T08:25:38.092Z,27.48
2023-06-05T08:28:04.580Z,22.65
2023-06-05T08:30:31.136Z,22.45
2023-06-05T08:32:57.956Z,21.27
2023-06-05T08:35:24.457Z,19.60
2023-06-05T08:37:50.949Z,22.90
2023-06-05T08:40:19.940Z,20.35
2023-06-05T08:42:46.588Z,19.85
2023-06-05T08:45:13.197Z,20.10
2023-06-05T08:47:39.982Z,19.85
2023-06-05T08:50:07.989Z,19.42
2023-06-05T08:52:36.638Z,19.75
2023-06-05T08:55:05.875Z,22.90
2023-06-05T08:57:38.639Z,22.65
2023-06-05T09:00:12.017Z,22.38
2023-06-05T09:02:40.875Z,18.73
2023-06-05T09:05:09.579Z,21.33
2023-06-05T09:07:40.141Z,19.35
2023-06-05T09:10:07.962Z,20.52
2023-06-05T09:12:54.893Z,20.17
2023-06-05T09:15:26.877Z,18.02
2023-06-05T09:18:13.722Z,17.05
2023-06-05T09:20:41.947Z,17.83
2023-06-05T09:23:29.177Z,21.50
2023-06-05T09:25:59.893Z,20.70
2023-06-05T09:28:27.498Z,17.50
2023-06-05T09:30:59.493Z,20.25
2023-06-05T09:33:28.631Z,18.13
2023-06-05T09:36:10.972Z,24.77
2023-06-05T09:38:40.075Z,19.58
2023-06-05T09:41:11.404Z,18.05
2023-06-05T09:43:39.070Z,19.95
2023-06-05T09:46:13.261Z,16.30
2023-06-05T09:48:42.447Z,14.68
2023-06-05T09:51:13.211Z,14.15
2023-06-05T09:53:45.681Z,18.95
2023-06-05T09:56:16.935Z,14.80
2023-06-05T09:58:46.655Z,12.75
2023-06-05T10:01:31.350Z,15.25
2023-06-05T10:04:02.222Z,13.65
2023-06-05T10:06:31.020Z,19.83
2023-06-05T10:08:58.024Z,20.67
2023-06-05T10:11:28.419Z,17.02
2023-06-05T10:13:55.922Z,16.70
2023-06-05T10:16:26.938Z,13.55
2023-06-05T10:18:56.490Z,16.52
2023-06-05T10:21:23.937Z,14.60
2023-06-05T10:23:59.599Z,16.08
2023-06-05T10:26:32.213Z,17.15
2023-06-05T10:29:10.816Z,15.85
2023-06-05T10:31:54.525Z,14.85
2023-06-05T10:34:36.406Z,13.87
2023-06-05T10:37:23.971Z,15.20
2023-06-05T10:39:51.343Z,15.60
2023-06-05T10:42:27.233Z,18.88
2023-06-05T10:44:54.513Z,10.23
2023-06-05T10:47:33.355Z,15.63
2023-06-05T10:50:22.139Z,11.93
2023-06-05T10:52:50.043Z,12.10
2023-06-05T10:55:18.495Z,14.38
2023-06-05T10:57:57.039Z,17.08
2023-06-05T11:00:23.587Z,22.92
2023-06-05T11:02:50.095Z,17.95
2023-06-05T11:05:16.676Z,10.60
2023-06-05T11:07:46.412Z,10.05
2023-06-05T11:10:26.605Z,14.60
2023-06-05T11:12:53.086Z,8.75
2023-06-05T11:15:28.377Z,7.60
2023-06-05T11:17:54.968Z,7.43
2023-06-05T11:20:24.396Z,6.10
2023-06-05T11:22:56.865Z,7.68
2023-06-05T11:25:25.424Z,7.22
2023-06-05T11:27:53.524Z,7.90
2023-06-05T11:30:39.364Z,9.90
2023-06-05T11:33:10.349Z,8.77
2023-06-05T11:35:37.446Z,7.90
2023-06-05T11:38:20.285Z,6.93
2023-06-05T11:40:49.853Z,8.43
2023-06-05T11:43:16.856Z,7.25
2023-06-05T11:45:51.519Z,12.73
2023-06-05T11:48:18.295Z,9.15
2023-06-05T11:51:02.319Z,8.23
2023-06-05T11:53:30.033Z,9.10
2023-06-05T11:56:08.874Z,7.57
2023-06-05T11:58:37.798Z,12.13
2023-06-05T12:01:26.640Z,8.30
2023-06-05T12:04:07.247Z,8.20
2023-06-05T12:06:35.399Z,8.82
2023-06-05T12:09:12.746Z,8.80
2023-06-05T12:11:39.692Z,7.28
2023-06-05T12:14:10.084Z,7.70
2023-06-05T12:16:38.528Z,9.45
2023-06-05T12:19:16.216Z,14.20
2023-06-05T12:21:44.626Z,8.27
2023-06-05T12:24:15.437Z,8.07
2023-06-05T12:26:55.291Z,7.20
2023-06-05T12:29:27.444Z,9.15
2023-06-05T12:31:54.455Z,8.63
2023-06-05T12:35:00.247Z,8.75
2023-06-05T12:37:43.504Z,9.65
2023-06-05T12:40:12.488Z,8.70
2023-06-05T12:42:41.429Z,8.85
2023-06-05T12:45:08.900Z,9.52
2023-06-05T12:47:36.079Z,9.15
2023-06-05T12:50:04.501Z,11.10
2023-06-05T12:52:33.546Z,11.23
2023-06-05T12:55:01.026Z,11.23
2023-06-05T12:57:27.513Z,10.55
2023-06-05T12:59:55.624Z,11.13
2023-06-05T13:02:22.957Z,9.30
2023-06-05T13:04:49.556Z,9.77
2023-06-05T13:07:19.995Z,10.27
2023-06-05T13:09:46.444Z,9.32
2023-06-05T13:12:12.833Z,9.60
2023-06-05T13:14:39.279Z,9.77
2023-06-05T13:17:05.822Z,9.80
2023-06-05T13:19:32.429Z,11.35
2023-06-05T13:21:58.853Z,10.80
2023-06-05T13:24:25.990Z,10.88
2023-06-05T13:26:52.742Z,11.98
2023-06-05T13:29:19.219Z,11.80
2023-06-05T13:31:45.914Z,12.00
2023-06-05T13:34:13.259Z,9.95
2023-06-05T13:36:39.867Z,13.57
2023-06-05T13:39:06.360Z,13.75
2023-06-05T13:41:32.862Z,11.52
2023-06-05T13:43:59.391Z,11.77
2023-06-05T13:46:27.216Z,13.13
2023-06-05T13:48:54.066Z,13.02
2023-06-05T13:51:20.491Z,11.65
2023-06-05T13:53:47.785Z,11.20
2023-06-05T13:56:14.181Z,12.65
2023-06-05T13:58:40.733Z,13.02
2023-06-05T14:01:07.176Z,11.88
2023-06-05T14:03:33.702Z,11.98
2023-06-05T14:06:00.599Z,11.48
2023-06-05T14:08:28.557Z,10.73
2023-06-05T14:10:55.382Z,11.82
2023-06-05T14:13:21.804Z,12.18
2023-06-05T14:15:48.814Z,11.35
2023-06-05T14:18:15.393Z,11.15
2023-06-05T14:20:41.871Z,10.18
2023-06-05T14:23:08.380Z,10.70
2023-06-05T14:25:34.789Z,11.07
2023-06-05T14:28:01.216Z,12.27
2023-06-05T14:30:28.268Z,8.73
2023-06-05T14:32:55.198Z,8.60
2023-06-05T14:35:23.428Z,9.13
2023-06-05T14:37:50.157Z,13.10
2023-06-05T14:40:16.833Z,6.75
2023-06-05T14:42:47.869Z,7.13
2023-06-05T14:45:16.948Z,6.60
2023-06-05T14:47:45.214Z,8.50
2023-06-05T14:50:11.775Z,6.78
2023-06-05T14:52:38.244Z,6.15
2023-06-05T15:03:51.602Z,5.88
2023-06-05T15:06:23.237Z,6.68
2023-06-05T15:08:51.675Z,6.63
2023-06-05T15:11:18.364Z,7.80
2023-06-05T15:13:44.816Z,6.93
2023-06-05T15:16:11.260Z,8.07
2023-06-05T15:18:37.649Z,7.38
2023-06-05T15:21:04.203Z,7.45
2023-06-05T15:23:30.926Z,8.07
2023-06-05T15:25:57.410Z,7.70
2023-06-05T15:28:23.817Z,6.93
2023-06-05T15:30:50.287Z,7.40
2023-06-05T15:33:17.179Z,7.35
2023-06-05T15:35:45.190Z,7.60
2023-06-05T15:38:12.351Z,6.82
2023-06-05T15:40:38.811Z,7.07
2023-06-05T15:43:09.198Z,7.53
2023-06-05T15:45:36.736Z,6.90
2023-06-05T15:48:03.829Z,6.68
2023-06-05T15:50:30.370Z,7.82
2023-06-05T15:52:56.988Z,7.20
2023-06-05T15:55:23.444Z,7.50
2023-06-05T15:57:50.004Z,7.25
2023-06-05T16:00:17.724Z,6.72
2023-06-05T16:02:44.573Z,6.82
2023-06-05T16:05:11.858Z,7.63
2023-06-05T16:07:38.492Z,6.75
2023-06-05T16:10:05.415Z,7.00
2023-06-05T16:12:31.898Z,7.03
2023-06-05T16:14:58.335Z,8.60
2023-06-05T16:17:24.877Z,7.85
2023-06-05T16:19:53.364Z,7.35
2023-06-05T16:22:21.212Z,6.60
2023-06-05T16:24:47.654Z,7.88
2023-06-05T16:27:20.051Z,7.07
2023-06-05T16:29:47.519Z,6.80
2023-06-05T16:32:14.489Z,8.77
2023-06-05T16:34:41.293Z,6.35
2023-06-05T16:37:08.671Z,8.27
2023-06-05T16:39:35.652Z,6.45
2023-06-05T16:42:03.455Z,6.45
2023-06-05T16:44:30.793Z,6.97
2023-06-05T16:46:57.362Z,6.45
2023-06-05T16:49:23.962Z,7.20
2023-06-05T16:51:50.502Z,7.32
2023-06-05T16:54:17.423Z,6.68
2023-06-05T16:56:43.998Z,9.27
2023-06-05T16:59:15.060Z,7.20
2023-06-05T17:01:41.994Z,7.00
2023-06-05T17:04:09.099Z,9.88
2023-06-05T17:06:36.354Z,7.20
2023-06-05T17:09:04.231Z,6.90
2023-06-05T17:11:30.686Z,8.35
2023-06-05T17:13:57.133Z,7.63
2023-06-05T17:16:23.596Z,7.38
2023-06-05T17:18:50.214Z,6.90
2023-06-05T17:21:16.698Z,8.32
2023-06-05T17:23:43.224Z,7.85
2023-06-05T17:26:10.673Z,8.50
2023-06-05T17:28:37.252Z,8.40
2023-06-05T17:31:03.853Z,8.70
2023-06-05T17:33:30.450Z,8.65
2023-06-05T17:35:56.866Z,8.20
2023-06-05T17:38:23.371Z,7.22
2023-06-05T17:40:49.814Z,13.52
2023-06-05T17:43:16.291Z,7.78
2023-06-05T17:45:42.705Z,8.13
2023-06-05T17:48:10.430Z,8.00
2023-06-05T17:50:37.117Z,7.88
2023-06-05T17:53:03.971Z,8.27
2023-06-05T17:55:30.685Z,8.13
2023-06-05T17:57:57.658Z,8.82
2023-06-05T18:00:25.934Z,13.80
2023-06-05T18:02:52.881Z,9.70
2023-06-05T18:05:20.023Z,10.02
2023-06-05T18:07:46.754Z,9.27
2023-06-05T18:10:13.176Z,13.10
2023-06-05T18:12:40.699Z,10.50
2023-06-05T18:15:07.956Z,11.15
2023-06-05T18:17:34.386Z,9.02
2023-06-05T18:20:00.789Z,11.15
2023-06-05T18:22:27.969Z,10.23
2023-06-05T18:24:54.385Z,11.98
2023-06-05T18:27:20.861Z,12.43
2023-06-05T18:29:47.623Z,8.07
2023-06-05T18:32:16.183Z,11.30
2023-06-05T18:34:42.871Z,11.77
2023-06-05T18:37:09.320Z,11.48
2023-06-05T18:39:35.743Z,12.30
2023-06-05T18:42:02.699Z,11.48
2023-06-05T18:44:29.182Z,11.80
2023-06-05T18:46:56.327Z,11.65
2023-06-05T18:49:22.845Z,13.60
2023-06-05T18:51:49.530Z,13.98
2023-06-05T18:54:16.040Z,15.50
2023-06-05T18:56:42.493Z,12.48
2023-06-05T18:59:09.178Z,15.18
2023-06-05T19:01:35.692Z,14.02
2023-06-05T19:04:02.393Z,14.30
2023-06-05T19:06:28.882Z,15.40
2023-06-05T19:08:55.418Z,14.77
2023-06-05T19:11:22.643Z,15.88
2023-06-05T19:13:49.260Z,15.95
2023-06-05T19:16:27.943Z,14.35
2023-06-05T19:18:54.457Z,15.18
2023-06-05T19:21:21.358Z,13.73
2023-06-05T19:23:47.878Z,13.57
2023-06-05T19:26:14.382Z,12.38
2023-06-05T19:28:40.896Z,11.70
2023-06-05T19:31:07.634Z,11.65
2023-06-05T19:33:35.178Z,12.50
2023-06-05T19:36:01.633Z,12.48
2023-06-05T19:38:28.087Z,12.73
2023-06-05T19:40:56.170Z,11.77
2023-06-05T19:43:22.705Z,10.85
2023-06-05T19:45:49.135Z,10.50
2023-06-05T19:48:15.564Z,11.90
2023-06-05T19:50:42.112Z,12.93
2023-06-05T19:53:08.808Z,14.82
2023-06-05T19:55:35.640Z,12.13
2023-06-05T19:58:02.611Z,12.98
2023-06-05T20:03:14.978Z,14.70
2023-06-05T20:05:41.569Z,14.38
2023-06-05T20:08:07.984Z,15.30
2023-06-05T20:10:34.958Z,15.40
2023-06-05T20:13:01.401Z,18.05
2023-06-05T20:15:28.566Z,19.23
2023-06-05T20:17:55.086Z,19.63
2023-06-05T20:20:21.732Z,19.45
2023-06-05T20:22:48.170Z,16.55
2023-06-05T20:25:14.818Z,20.60
2023-06-05T20:27:41.218Z,15.90
2023-06-05T20:30:08.212Z,15.50
2023-06-05T20:32:34.719Z,21.33
2023-06-05T20:35:01.454Z,20.10
2023-06-05T20:37:31.349Z,16.02
2023-06-05T20:39:59.504Z,18.35
2023-06-05T20:42:30.165Z,15.43
2023-06-05T20:44:57.791Z,16.98
2023-06-05T20:47:24.538Z,26.80
2023-06-05T20:49:50.984Z,26.20
2023-06-05T20:52:17.456Z,20.08
2023-06-05T20:54:43.899Z,22.55
2023-06-05T20:57:14.849Z,20.90
2023-06-05T20:59:43.460Z,17.15
2023-06-05T21:02:11.675Z,22.60
2023-06-05T21:04:42.203Z,17.08
2023-06-05T21:07:08.850Z,18.02
2023-06-05T21:09:35.583Z,16.05
2023-06-05T21:12:03.034Z,15.30
2023-06-05T21:14:32.980Z,14.65
2023-06-05T21:16:59.464Z,14.95
2023-06-05T21:19:25.981Z,16.38
2023-06-05T21:21:52.435Z,17.33
2023-06-05T21:24:18.809Z,14.45
2023-06-05T21:26:45.259Z,13.02
2023-06-05T21:29:11.626Z,14.02
2023-06-05T21:31:47.621Z,15.68
2023-06-05T21:34:17.117Z,22.67
2023-06-05T21:36:45.508Z,23.70
2023-06-05T21:39:13.902Z,24.02
2023-06-05T21:41:40.984Z,21.23
2023-06-05T21:44:07.709Z,27.50
2023-06-05T21:46:34.101Z,31.83
2023-06-05T21:49:00.614Z,31.85
2023-06-05T21:51:26.997Z,26.95
2023-06-05T21:53:53.406Z,30.98
2023-06-05T21:56:19.777Z,30.85
2023-06-05T21:58:46.186Z,34.75
2023-06-05T22:01:12.832Z,36.63
2023-06-05T22:03:39.650Z,31.30
2023-06-05T22:06:06.732Z,41.55
2023-06-05T22:08:33.164Z,40.65
2023-06-05T22:10:59.566Z,40.22
2023-06-05T22:13:29.341Z,49.00
2023-06-05T22:15:56.721Z,48.42
2023-06-05T22:18:28.163Z,65.00
2023-06-05T22:20:54.701Z,75.72
2023-06-05T22:23:21.370Z,83.18
2023-06-05T22:25:52.387Z,216.32
2023-06-05T22:28:19.806Z,179.10
2023-06-05T22:30:46.505Z,162.63
2023-06-05T22:33:13.864Z,265.83
2023-06-05T22:35:40.585Z,213.98
2023-06-05T22:38:09.455Z,193.85
2023-06-05T22:40:35.983Z,141.18
2023-06-05T22:43:02.329Z,279.77
2023-06-05T22:45:28.803Z,198.40
2023-06-05T22:47:56.362Z,335.48
2023-06-05T22:50:22.815Z,291.48
2023-06-05T22:52:51.394Z,254.80
2023-06-05T22:55:17.848Z,240.00
2023-06-05T22:57:44.324Z,296.02
2023-06-05T23:00:12.122Z,249.85
2023-06-05T23:02:38.905Z,298.73
2023-06-05T23:05:06.658Z,334.55
2023-06-05T23:07:33.018Z,405.70
2023-06-05T23:09:59.460Z,396.23
2023-06-05T23:12:27.032Z,476.83
2023-06-05T23:14:54.732Z,475.48
2023-06-05T23:17:21.125Z,484.67
2023-06-05T23:19:47.525Z,393.10
2023-06-05T23:22:13.945Z,365.65
2023-06-05T23:24:40.533Z,382.15
2023-06-05T23:27:07.922Z,420.23
2023-06-05T23:29:34.332Z,453.88
2023-06-05T23:32:00.864Z,437.27
2023-06-05T23:34:27.333Z,421.33
2023-06-05T23:36:53.774Z,450.75
2023-06-05T23:39:20.263Z,442.27
2023-06-05T23:41:50.490Z,393.40
2023-06-05T23:44:18.057Z,475.08
2023-06-05T23:46:48.199Z,460.30
2023-06-05T23:49:14.696Z,407.23
2023-06-05T23:51:41.369Z,444.95
2023-06-05T23:54:08.070Z,416.17
2023-06-05T23:56:34.499Z,471.20
2023-06-05T23:59:00.861Z,506.38
